Spiegelgracht — PCEO — position and weather

sailwx.info

Track history (hours):
 
Tides and Currents Weather Stations Pressure Air Temp Water Temp Dewpoint Dewpoint Depression Visibility Wind Speed Wind Dir Waves Ship Positions

Spiegelgracht

Last reported at 2017-Jun-26 00:00 UTC. Time now 2017-Jun-26 00:22 UTC.
Position N 53°52' E 005°01'.

Length 168 m; beam 25 m.

Type: Cargo ship. MMSI: 245789000.

Date/timePositionNaut miles runAvg speedWind from/ knotsBaromVisibWave heightAir tempDewpointWater temp
2017-Jun-26 00:00N 53°52' E 005°01'816.1
2017-Jun-25 23:30N 53°45' E 004°55'816.4
2017-Jun-25 23:01N 53°37' E 004°50'816.3
2017-Jun-25 22:30N 53°30' E 004°45'815.8
2017-Jun-25 22:00N 53°22' E 004°40'816.5
2017-Jun-25 21:31N 53°15' E 004°35'816.4
2017-Jun-25 21:01N 53°07' E 004°29'816.5
2017-Jun-25 20:30N 52°60' E 004°22'816.6
2017-Jun-25 20:00N 52°53' E 004°16'816.7
2017-Jun-25 19:30N 52°46' E 004°09'917.3
2017-Jun-25 19:00N 52°39' E 003°59'917.5
2017-Jun-25 18:30N 52°33' E 003°49'917.7
2017-Jun-25 18:00N 52°27' E 003°38'1018.0
2017-Jun-25 17:28N 52°20' E 003°28'1020.6
2017-Jun-25 17:00N 52°13' E 003°17'815.6
2017-Jun-25 16:30N 52°07' E 003°07'2618.8
2017-Jun-25 15:07N 51°48' E 002°39'419.2
2017-Jun-25 14:55N 51°45' E 002°36'819.1
2017-Jun-25 14:30N 51°38' E 002°28'1818.4
2017-Jun-25 13:30N 51°23' E 002°11'918.4
2017-Jun-25 13:00N 51°15' E 002°05'1019.7
2017-Jun-25 12:31N 51°10' E 001°52'1019.9
2017-Jun-25 12:01N 51°04' E 001°40'1019.4
2017-Jun-25 11:29N 50°56' E 001°29'3417.8
2017-Jun-25 09:34N 50°28' E 000°57'418.9
2017-Jun-25 09:23N 50°27' E 000°52'819.2
2017-Jun-25 08:59N 50°25' E 000°40'919.3
2017-Jun-25 08:30N 50°23' E 000°26'1019.2
2017-Jun-25 08:00N 50°21' E 000°12'918.8
2017-Jun-25 07:31N 50°18' W 000°02'918.4
2017-Jun-25 07:01N 50°15' W 000°16'918.1
2017-Jun-25 06:31N 50°13' W 000°29'917.7
2017-Jun-25 06:01N 50°10' W 000°43'817.0
2017-Jun-25 05:31N 50°08' W 000°55'816.2
2017-Jun-25 05:00N 50°06' W 001°08'815.4
2017-Jun-25 04:30N 50°04' W 001°19'714.4
2017-Jun-25 04:00N 50°02' W 001°30'713.6
2017-Jun-25 03:30N 49°59' W 001°40'713.1
2017-Jun-25 03:00N 49°58' W 001°50'612.2
2017-Jun-25 02:30N 49°56' W 001°59'612.4
2017-Jun-25 02:00N 49°55' W 002°08'612.8
2017-Jun-25 01:30N 49°53' W 002°18'1914.5
2017-Jun-25 00:11N 49°51' W 002°48'615.5
2017-Jun-24 23:47N 49°50' W 002°57'515.9
2017-Jun-24 23:27N 49°48' W 003°05'916.3
2017-Jun-24 22:52N 49°46' W 003°19'816.4
2017-Jun-24 22:23N 49°44' W 003°31'3216.8
2017-Jun-24 20:30N 49°36' W 004°19'2017.5
2017-Jun-24 19:21N 49°31' W 004°48'1318.0
2017-Jun-24 18:39N 49°28' W 005°07'  
2017-Jun-17 11:21N 38°51' W 073°53'3217.0
2017-Jun-17 09:29N 38°46' W 074°34'1817.2
2017-Jun-17 08:28N 38°46' W 074°56'713.6
2017-Jun-17 07:59N 38°49' W 075°04'612.7
2017-Jun-17 07:30N 38°55' W 075°05'714.4
2017-Jun-17 07:01N 39°01' W 075°09'714.0
2017-Jun-17 06:30N 39°07' W 075°13'713.7
2017-Jun-17 06:01N 39°13' W 075°18'713.6
2017-Jun-17 05:31N 39°18' W 075°23'714.3
2017-Jun-17 05:00N 39°24' W 075°30'713.8
2017-Jun-17 04:30N 39°30' W 075°33'714.7
2017-Jun-17 04:01N 39°37' W 075°35'714.6
2017-Jun-17 03:30N 39°44' W 075°30'611.9
2017-Jun-17 03:01N 39°48' W 075°25'611.4
2017-Jun-17 02:31N 39°51' W 075°18'5 9.5
2017-Jun-17 02:01N 39°52' W 075°13'4 7.6
2017-Jun-17 01:30N 39°54' W 075°08'1 2.4
2017-Jun-17 01:00N 39°55' W 075°08'0 0.1
2017-Jun-17 00:31N 39°55' W 075°08'0 0.0
2017-Jun-17 00:00N 39°55' W 075°08'0 0.0
2017-Jun-16 23:30N 39°55' W 075°08'0 0.0
2017-Jun-16 23:00N 39°55' W 075°08'0 0.0
2017-Jun-16 22:31N 39°55' W 075°08'0 0.0
2017-Jun-16 22:01N 39°55' W 075°08'0 0.0
2017-Jun-16 21:30N 39°55' W 075°08'0 0.0
2017-Jun-16 21:00N 39°55' W 075°08'0 0.0
2017-Jun-16 20:31N 39°55' W 075°08'0 0.0
2017-Jun-16 20:00N 39°55' W 075°08'0 0.0
2017-Jun-16 19:30N 39°55' W 075°08'0 0.0
2017-Jun-16 19:00N 39°55' W 075°08'0 0.0
2017-Jun-16 18:30N 39°55' W 075°08'0 0.0
2017-Jun-16 18:01N 39°55' W 075°08'0 0.0
2017-Jun-16 17:30N 39°55' W 075°08'0 0.0
2017-Jun-16 17:00N 39°55' W 075°08'0 0.0
2017-Jun-16 16:30N 39°55' W 075°08'0 0.0
2017-Jun-16 16:00N 39°55' W 075°08'0 0.0
2017-Jun-16 15:30N 39°55' W 075°08'0 0.0
2017-Jun-16 15:00N 39°55' W 075°08'0 0.0
2017-Jun-16 14:00N 39°55' W 075°08'0 0.0
2017-Jun-16 13:31N 39°55' W 075°08'0 0.0
2017-Jun-16 13:00N 39°55' W 075°08'0 0.0
2017-Jun-16 12:30N 39°55' W 075°08'0 0.0
2017-Jun-16 12:00N 39°55' W 075°08'0 0.0
2017-Jun-16 11:30N 39°55' W 075°08'0 0.0
2017-Jun-16 11:00N 39°55' W 075°08'0 0.0
2017-Jun-16 10:30N 39°55' W 075°08'0 0.0
2017-Jun-16 10:00N 39°55' W 075°08'0 0.0
2017-Jun-16 09:30N 39°55' W 075°08'0 0.0
2017-Jun-16 09:00N 39°55' W 075°08'0 0.0
2017-Jun-16 08:30N 39°55' W 075°08'0 0.0
2017-Jun-16 08:00N 39°55' W 075°08'0 0.0
2017-Jun-16 07:31N 39°55' W 075°08'0 0.0
2017-Jun-16 07:01N 39°55' W 075°08'0 0.0
2017-Jun-16 06:31N 39°55' W 075°08'0 0.0
2017-Jun-16 06:01N 39°55' W 075°08'0 0.0
2017-Jun-16 05:31N 39°55' W 075°08'0 0.0
2017-Jun-16 05:00N 39°55' W 075°08'0 0.0
2017-Jun-16 04:30N 39°55' W 075°08'0 0.0
2017-Jun-16 04:00N 39°55' W 075°08'0 0.0
2017-Jun-16 03:31N 39°55' W 075°08'0 0.0
2017-Jun-16 03:00N 39°55' W 075°08'0 0.0
2017-Jun-16 02:30N 39°55' W 075°08'0 0.0
2017-Jun-16 02:00N 39°55' W 075°08'0 0.0
2017-Jun-16 01:30N 39°55' W 075°08'0 0.0
2017-Jun-16 01:00N 39°55' W 075°08'0 0.0
2017-Jun-16 00:30N 39°55' W 075°08'0 0.0
2017-Jun-16 00:01N 39°55' W 075°08'  
Track history (hours):
 
Tides and Currents Weather Stations Pressure Air Temp Water Temp Dewpoint Dewpoint Depression Visibility Wind Speed Wind Dir Waves Ship Positions

Spiegelgracht

Last reported at 2017-Jun-26 00:00 UTC. Time now 2017-Jun-26 00:22 UTC.
Position N 53°52' E 005°01'.

Length 168 m; beam 25 m.

Type: Cargo ship. MMSI: 245789000.

Date/timePositionNaut miles runAvg speedWind from/ knotsBaromVisibWave heightAir tempDewpointWater temp
2017-Jun-26 00:00N 53°52' E 005°01'816.1
2017-Jun-25 23:30N 53°45' E 004°55'816.4
2017-Jun-25 23:01N 53°37' E 004°50'816.3
2017-Jun-25 22:30N 53°30' E 004°45'815.8
2017-Jun-25 22:00N 53°22' E 004°40'816.5
2017-Jun-25 21:31N 53°15' E 004°35'816.4
2017-Jun-25 21:01N 53°07' E 004°29'816.5
2017-Jun-25 20:30N 52°60' E 004°22'816.6
2017-Jun-25 20:00N 52°53' E 004°16'816.7
2017-Jun-25 19:30N 52°46' E 004°09'917.3
2017-Jun-25 19:00N 52°39' E 003°59'917.5
2017-Jun-25 18:30N 52°33' E 003°49'917.7
2017-Jun-25 18:00N 52°27' E 003°38'1018.0
2017-Jun-25 17:28N 52°20' E 003°28'1020.6
2017-Jun-25 17:00N 52°13' E 003°17'815.6
2017-Jun-25 16:30N 52°07' E 003°07'2618.8
2017-Jun-25 15:07N 51°48' E 002°39'419.2
2017-Jun-25 14:55N 51°45' E 002°36'819.1
2017-Jun-25 14:30N 51°38' E 002°28'1818.4
2017-Jun-25 13:30N 51°23' E 002°11'918.4
2017-Jun-25 13:00N 51°15' E 002°05'1019.7
2017-Jun-25 12:31N 51°10' E 001°52'1019.9
2017-Jun-25 12:01N 51°04' E 001°40'1019.4
2017-Jun-25 11:29N 50°56' E 001°29'3417.8
2017-Jun-25 09:34N 50°28' E 000°57'418.9
2017-Jun-25 09:23N 50°27' E 000°52'819.2
2017-Jun-25 08:59N 50°25' E 000°40'919.3
2017-Jun-25 08:30N 50°23' E 000°26'1019.2
2017-Jun-25 08:00N 50°21' E 000°12'918.8
2017-Jun-25 07:31N 50°18' W 000°02'918.4
2017-Jun-25 07:01N 50°15' W 000°16'918.1
2017-Jun-25 06:31N 50°13' W 000°29'917.7
2017-Jun-25 06:01N 50°10' W 000°43'817.0
2017-Jun-25 05:31N 50°08' W 000°55'816.2
2017-Jun-25 05:00N 50°06' W 001°08'815.4
2017-Jun-25 04:30N 50°04' W 001°19'714.4
2017-Jun-25 04:00N 50°02' W 001°30'713.6
2017-Jun-25 03:30N 49°59' W 001°40'713.1
2017-Jun-25 03:00N 49°58' W 001°50'612.2
2017-Jun-25 02:30N 49°56' W 001°59'612.4
2017-Jun-25 02:00N 49°55' W 002°08'612.8
2017-Jun-25 01:30N 49°53' W 002°18'1914.5
2017-Jun-25 00:11N 49°51' W 002°48'615.5
2017-Jun-24 23:47N 49°50' W 002°57'515.9
2017-Jun-24 23:27N 49°48' W 003°05'916.3
2017-Jun-24 22:52N 49°46' W 003°19'816.4
2017-Jun-24 22:23N 49°44' W 003°31'3216.8
2017-Jun-24 20:30N 49°36' W 004°19'2017.5
2017-Jun-24 19:21N 49°31' W 004°48'1318.0
2017-Jun-24 18:39N 49°28' W 005°07'  
2017-Jun-17 11:21N 38°51' W 073°53'3217.0
2017-Jun-17 09:29N 38°46' W 074°34'1817.2
2017-Jun-17 08:28N 38°46' W 074°56'713.6
2017-Jun-17 07:59N 38°49' W 075°04'612.7
2017-Jun-17 07:30N 38°55' W 075°05'714.4
2017-Jun-17 07:01N 39°01' W 075°09'714.0
2017-Jun-17 06:30N 39°07' W 075°13'713.7
2017-Jun-17 06:01N 39°13' W 075°18'713.6
2017-Jun-17 05:31N 39°18' W 075°23'714.3
2017-Jun-17 05:00N 39°24' W 075°30'713.8
2017-Jun-17 04:30N 39°30' W 075°33'714.7
2017-Jun-17 04:01N 39°37' W 075°35'714.6
2017-Jun-17 03:30N 39°44' W 075°30'611.9
2017-Jun-17 03:01N 39°48' W 075°25'611.4
2017-Jun-17 02:31N 39°51' W 075°18'5 9.5
2017-Jun-17 02:01N 39°52' W 075°13'4 7.6
2017-Jun-17 01:30N 39°54' W 075°08'1 2.4
2017-Jun-17 01:00N 39°55' W 075°08'0 0.1
2017-Jun-17 00:31N 39°55' W 075°08'0 0.0
2017-Jun-17 00:00N 39°55' W 075°08'0 0.0
2017-Jun-16 23:30N 39°55' W 075°08'0 0.0
2017-Jun-16 23:00N 39°55' W 075°08'0 0.0
2017-Jun-16 22:31N 39°55' W 075°08'0 0.0
2017-Jun-16 22:01N 39°55' W 075°08'0 0.0
2017-Jun-16 21:30N 39°55' W 075°08'0 0.0
2017-Jun-16 21:00N 39°55' W 075°08'0 0.0
2017-Jun-16 20:31N 39°55' W 075°08'0 0.0
2017-Jun-16 20:00N 39°55' W 075°08'0 0.0
2017-Jun-16 19:30N 39°55' W 075°08'0 0.0
2017-Jun-16 19:00N 39°55' W 075°08'0 0.0
2017-Jun-16 18:30N 39°55' W 075°08'0 0.0
2017-Jun-16 18:01N 39°55' W 075°08'0 0.0
2017-Jun-16 17:30N 39°55' W 075°08'0 0.0
2017-Jun-16 17:00N 39°55' W 075°08'0 0.0
2017-Jun-16 16:30N 39°55' W 075°08'0 0.0
2017-Jun-16 16:00N 39°55' W 075°08'0 0.0
2017-Jun-16 15:30N 39°55' W 075°08'0 0.0
2017-Jun-16 15:00N 39°55' W 075°08'0 0.0
2017-Jun-16 14:00N 39°55' W 075°08'0 0.0
2017-Jun-16 13:31N 39°55' W 075°08'0 0.0
2017-Jun-16 13:00N 39°55' W 075°08'0 0.0
2017-Jun-16 12:30N 39°55' W 075°08'0 0.0
2017-Jun-16 12:00N 39°55' W 075°08'0 0.0
2017-Jun-16 11:30N 39°55' W 075°08'0 0.0
2017-Jun-16 11:00N 39°55' W 075°08'0 0.0
2017-Jun-16 10:30N 39°55' W 075°08'0 0.0
2017-Jun-16 10:00N 39°55' W 075°08'0 0.0
2017-Jun-16 09:30N 39°55' W 075°08'0 0.0
2017-Jun-16 09:00N 39°55' W 075°08'0 0.0
2017-Jun-16 08:30N 39°55' W 075°08'0 0.0
2017-Jun-16 08:00N 39°55' W 075°08'0 0.0
2017-Jun-16 07:31N 39°55' W 075°08'0 0.0
2017-Jun-16 07:01N 39°55' W 075°08'0 0.0
2017-Jun-16 06:31N 39°55' W 075°08'0 0.0
2017-Jun-16 06:01N 39°55' W 075°08'0 0.0
2017-Jun-16 05:31N 39°55' W 075°08'0 0.0
2017-Jun-16 05:00N 39°55' W 075°08'0 0.0
2017-Jun-16 04:30N 39°55' W 075°08'0 0.0
2017-Jun-16 04:00N 39°55' W 075°08'0 0.0
2017-Jun-16 03:31N 39°55' W 075°08'0 0.0
2017-Jun-16 03:00N 39°55' W 075°08'0 0.0
2017-Jun-16 02:30N 39°55' W 075°08'0 0.0
2017-Jun-16 02:00N 39°55' W 075°08'0 0.0
2017-Jun-16 01:30N 39°55' W 075°08'0 0.0
2017-Jun-16 01:00N 39°55' W 075°08'0 0.0
2017-Jun-16 00:30N 39°55' W 075°08'0 0.0
2017-Jun-16 00:01N 39°55' W 075°08'  

Dump ship's entire track history